createdAt,value
2019-06-10T00:00:26.005Z,1.57
2019-06-10T00:05:30.868Z,1.23
2019-06-10T00:10:35.511Z,1.40
2019-06-10T00:15:53.381Z,1.40
2019-06-10T00:20:59.820Z,1.40
2019-06-10T00:26:07.628Z,1.53
2019-06-10T00:31:12.751Z,1.40
2019-06-10T00:36:18.171Z,1.60
2019-06-10T00:41:24.422Z,1.60
2019-06-10T00:46:31.500Z,1.87
2019-06-10T00:51:35.481Z,1.93
2019-06-10T00:56:41.329Z,1.70
2019-06-10T01:01:46.395Z,2.13
2019-06-10T01:06:51.717Z,2.00
2019-06-10T01:11:56.721Z,2.40
2019-06-10T01:17:01.946Z,2.00
2019-06-10T01:22:13.781Z,1.63
2019-06-10T01:27:21.225Z,1.63
2019-06-10T01:32:26.806Z,1.80
2019-06-10T01:37:32.766Z,2.20
2019-06-10T01:42:41.292Z,2.13
2019-06-10T01:47:45.953Z,2.00
2019-06-10T01:52:51.562Z,2.27
2019-06-10T01:58:08.171Z,2.20
2019-06-10T02:03:16.643Z,2.23
2019-06-10T02:08:22.346Z,1.80
2019-06-10T02:13:32.768Z,1.93
2019-06-10T02:18:38.134Z,1.67
2019-06-10T02:23:42.940Z,1.70
2019-06-10T02:29:11.636Z,1.73
2019-06-10T02:34:21.797Z,1.70
2019-06-10T02:39:33.432Z,1.60
2019-06-10T02:44:44.643Z,1.57
2019-06-10T02:49:59.063Z,2.00
2019-06-10T02:54:56.387Z,2.00
2019-06-10T03:00:06.479Z,1.50
2019-06-10T03:05:13.907Z,1.80
2019-06-10T03:10:19.119Z,1.80
2019-06-10T03:15:25.151Z,1.83
2019-06-10T03:20:32.207Z,1.70
2019-06-10T03:25:38.989Z,1.40
2019-06-10T03:30:52.803Z,1.77
2019-06-10T03:35:52.302Z,1.90
2019-06-10T03:40:58.558Z,1.70
2019-06-10T03:46:03.489Z,1.63
2019-06-10T03:51:09.220Z,1.60
2019-06-10T03:56:14.099Z,1.57
2019-06-10T04:01:24.379Z,1.60
2019-06-10T04:06:27.671Z,1.53
2019-06-10T04:11:35.453Z,1.53
2019-06-10T04:16:39.734Z,1.60
2019-06-10T04:21:45.517Z,1.40
2019-06-10T04:26:52.612Z,1.80
2019-06-10T04:31:57.429Z,1.70
2019-06-10T04:42:29.333Z,1.20
2019-06-10T04:47:52.794Z,1.20
2019-06-10T04:53:16.974Z,1.27
2019-06-10T04:58:43.034Z,1.47
2019-06-10T05:04:06.013Z,1.20
2019-06-10T05:09:31.282Z,1.77
2019-06-10T05:14:54.843Z,1.30
2019-06-10T05:20:18.076Z,1.60
2019-06-10T05:25:42.793Z,1.50
2019-06-10T05:31:07.224Z,1.50
2019-06-10T05:36:34.363Z,1.60
2019-06-10T05:41:56.164Z,1.83
2019-06-10T05:47:20.120Z,1.60
2019-06-10T05:52:43.481Z,1.60
2019-06-10T05:58:07.499Z,1.70
2019-06-10T06:03:35.096Z,1.77
2019-06-10T06:08:56.529Z,1.70
2019-06-10T06:14:22.641Z,1.93
2019-06-10T06:19:46.573Z,1.50
2019-06-10T06:25:15.295Z,2.10
2019-06-10T06:30:37.635Z,1.60
2019-06-10T06:36:03.550Z,1.80
2019-06-10T06:41:27.665Z,2.10
2019-06-10T06:46:53.289Z,1.80
2019-06-10T06:52:16.360Z,2.07
2019-06-10T06:57:47.683Z,2.10
2019-06-10T07:03:14.836Z,2.20
2019-06-10T07:08:41.471Z,1.53
2019-06-10T07:14:05.558Z,1.43
2019-06-10T07:19:29.283Z,2.33
2019-06-10T07:24:53.105Z,1.50
2019-06-10T07:30:18.224Z,1.60
2019-06-10T07:35:44.119Z,2.40
2019-06-10T07:41:07.604Z,1.83
2019-06-10T07:46:33.532Z,1.63
2019-06-10T07:52:12.012Z,1.90
2019-06-10T07:57:25.311Z,1.93
2019-06-10T08:09:14.004Z,2.87
2019-06-10T08:14:42.632Z,2.30
2019-06-10T08:20:05.995Z,1.60
2019-06-10T08:25:32.767Z,2.07
2019-06-10T08:30:55.761Z,2.53
2019-06-10T08:36:22.248Z,3.23
2019-06-10T08:41:47.800Z,3.00
2019-06-10T08:47:12.406Z,2.13
2019-06-10T08:52:56.899Z,2.30
2019-06-10T08:58:04.522Z,2.17
2019-06-10T09:03:28.646Z,2.67
2019-06-10T09:08:54.641Z,2.43
2019-06-10T09:14:19.685Z,2.37
2019-06-10T09:19:48.835Z,2.27
2019-06-10T09:25:12.764Z,3.33
2019-06-10T09:30:37.035Z,3.30
2019-06-10T09:36:02.999Z,2.17
2019-06-10T09:41:36.275Z,2.37
2019-06-10T09:46:55.943Z,4.70
2019-06-10T09:52:17.130Z,2.60
2019-06-10T09:57:43.390Z,4.23
2019-06-10T10:03:05.375Z,2.37
2019-06-10T10:08:29.256Z,2.37
2019-06-10T10:13:52.775Z,2.63
2019-06-10T10:19:16.104Z,3.37
2019-06-10T10:24:39.529Z,2.90
2019-06-10T10:30:03.917Z,4.13
2019-06-10T10:35:28.183Z,2.60
2019-06-10T10:40:58.504Z,2.73
2019-06-10T10:46:19.139Z,2.97
2019-06-10T10:51:42.983Z,2.50
2019-06-10T10:57:06.417Z,2.93
2019-06-10T11:02:32.217Z,2.53
2019-06-10T11:07:56.727Z,2.57
2019-06-10T11:13:23.048Z,2.00
2019-06-10T11:18:47.225Z,3.00
2019-06-10T11:24:14.273Z,2.47
2019-06-10T11:29:37.624Z,2.20
2019-06-10T11:35:02.926Z,2.60
2019-06-10T11:40:26.638Z,3.23
2019-06-10T11:45:56.892Z,2.43
2019-06-10T11:51:17.152Z,2.63
2019-06-10T11:56:42.198Z,2.70
2019-06-10T12:02:06.409Z,2.07
2019-06-10T12:07:33.032Z,2.73
2019-06-10T12:12:58.188Z,3.57
2019-06-10T12:18:22.713Z,2.80
2019-06-10T12:23:44.904Z,3.37
2019-06-10T12:29:08.278Z,3.17
2019-06-10T12:34:33.339Z,3.97
2019-06-10T12:39:59.424Z,3.43
2019-06-10T12:45:23.346Z,4.37
2019-06-10T12:50:48.036Z,3.23
2019-06-10T12:56:14.789Z,2.73
2019-06-10T13:01:36.893Z,3.67
2019-06-10T13:07:05.178Z,3.73
2019-06-10T13:12:27.116Z,3.97
2019-06-10T13:17:53.769Z,2.70
2019-06-10T13:23:23.892Z,3.63
2019-06-10T13:28:44.042Z,2.97
2019-06-10T13:34:11.121Z,2.47
2019-06-10T13:39:34.274Z,3.00
2019-06-10T13:44:57.911Z,3.83
2019-06-10T13:50:22.113Z,3.77
2019-06-10T13:55:46.029Z,3.27
2019-06-10T14:01:17.835Z,2.33
2019-06-10T14:06:46.100Z,2.30
2019-06-10T14:12:00.306Z,3.33
2019-06-10T14:17:26.311Z,2.27
2019-06-10T14:22:49.486Z,3.10
2019-06-10T14:28:25.862Z,2.50
2019-06-10T14:33:45.921Z,2.07
2019-06-10T14:39:38.511Z,2.40
2019-06-10T14:46:07.202Z,3.13
2019-06-10T14:51:39.814Z,2.83
2019-06-10T15:03:52.160Z,3.23
2019-06-10T15:09:15.739Z,3.17
2019-06-10T15:14:43.915Z,3.90
2019-06-10T15:32:48.368Z,3.03
2019-06-10T15:38:32.701Z,3.60
2019-06-10T15:43:57.903Z,3.70
2019-06-10T15:49:25.952Z,2.83
2019-06-10T15:54:49.190Z,2.47
2019-06-10T16:00:17.636Z,2.80
2019-06-10T16:05:39.215Z,2.40
2019-06-10T16:11:03.114Z,2.63
2019-06-10T16:16:29.157Z,2.23
2019-06-10T16:21:53.594Z,2.73
2019-06-10T16:27:17.914Z,2.90
2019-06-10T16:32:41.796Z,3.03
2019-06-10T16:38:07.532Z,2.80
2019-06-10T16:43:33.430Z,2.77
2019-06-10T16:48:58.764Z,3.27
2019-06-10T16:54:25.859Z,2.90
2019-06-10T16:59:52.057Z,3.03
2019-06-10T17:05:16.490Z,3.10
2019-06-10T17:10:40.125Z,3.00
2019-06-10T17:16:07.313Z,3.27
2019-06-10T17:21:34.624Z,3.20
2019-06-10T17:26:57.910Z,3.57
2019-06-10T17:32:25.296Z,3.30
2019-06-10T17:37:53.687Z,2.60
2019-06-10T17:43:17.488Z,2.27
2019-06-10T17:48:44.521Z,2.83
2019-06-10T17:54:12.787Z,2.10
2019-06-10T18:21:24.405Z,3.30
2019-06-10T18:26:47.275Z,2.95
2019-06-10T18:32:12.447Z,2.77
2019-06-10T18:37:38.756Z,2.40
2019-06-10T18:50:02.829Z,2.60
2019-06-10T19:08:46.876Z,3.10
2019-06-10T19:20:59.183Z,2.43
2019-06-10T19:45:55.013Z,2.43
2019-06-10T19:51:18.485Z,3.97
2019-06-10T19:56:46.886Z,2.70
2019-06-10T20:02:11.306Z,2.80
2019-06-10T20:07:36.326Z,2.70
2019-06-10T20:13:01.595Z,2.90
2019-06-10T20:18:27.567Z,2.77
2019-06-10T20:23:54.253Z,3.50
2019-06-10T20:29:22.170Z,3.90
2019-06-10T20:34:49.623Z,2.80
2019-06-10T20:40:14.263Z,3.27
2019-06-10T20:45:39.465Z,3.67
2019-06-10T20:51:05.183Z,3.37
2019-06-10T20:56:33.804Z,2.60
2019-06-10T21:01:58.210Z,3.13
2019-06-10T21:07:24.703Z,3.50
2019-06-10T21:12:52.726Z,2.60
2019-06-10T21:18:22.805Z,2.77
2019-06-10T21:30:36.586Z,4.90
2019-06-10T21:35:48.557Z,3.73
2019-06-10T21:41:22.835Z,3.53
2019-06-10T21:47:07.679Z,6.53
2019-06-10T21:52:32.514Z,3.40
2019-06-10T22:04:13.375Z,4.27
2019-06-10T22:09:36.594Z,6.13
2019-06-10T22:15:01.623Z,5.10
2019-06-10T22:20:25.356Z,6.30
2019-06-10T22:25:49.366Z,4.30
2019-06-10T22:31:22.435Z,5.23
2019-06-10T22:36:37.922Z,4.83
2019-06-10T22:42:03.033Z,5.13
2019-06-10T22:47:25.772Z,5.90
2019-06-10T22:52:49.671Z,4.30
2019-06-10T22:58:15.119Z,5.43
2019-06-10T23:03:39.485Z,3.90
2019-06-10T23:09:05.075Z,3.03
2019-06-10T23:14:33.740Z,4.97
2019-06-10T23:19:58.433Z,5.77
2019-06-10T23:25:25.686Z,3.03
2019-06-10T23:30:55.289Z,3.97
2019-06-10T23:36:17.028Z,5.30
2019-06-10T23:41:43.398Z,5.23
2019-06-10T23:47:07.883Z,3.00
2019-06-10T23:52:33.046Z,4.10
2019-06-10T23:57:58.286Z,4.17
